Time;durP1;ratioP1;P1;durP2;ratioP2;P2;SDS_P1;SDS_P2;PMS_P1;PMS_P2;Temp;Humidity;BMP_temperature;BMP_pressure;BME280_temperature;BME280_humidity;BME280_pressure;Samples;Min_cycle;Max_cycle;Signal;HPM_P1;HPM_P2
2023/05/19 00:01:13;;;;;;;4.80;2.20;;;;;;;11.38;76.23;101634.73;102354;280;94314;-56
2023/05/19 00:03:56;;;;;;;3.10;2.30;;;;;;;11.35;76.66;101631.52;102378;280;98360;-55
2023/05/19 00:06:31;;;;;;;3.00;1.80;;;;;;;11.35;76.73;101630.00;102324;280;119685;-56
2023/05/19 00:09:13;;;;;;;4.40;2.00;;;;;;;11.35;76.83;101625.16;102405;280;105415;-53
2023/05/19 00:11:57;;;;;;;2.40;1.80;;;;;;;11.29;76.81;101627.59;102326;280;114189;-53
2023/05/19 00:14:38;;;;;;;4.00;1.70;;;;;;;11.26;76.94;101628.25;102342;280;96064;-53
2023/05/19 00:17:15;;;;;;;3.90;2.10;;;;;;;11.24;76.93;101627.52;102355;280;95636;-53
2023/05/19 00:19:57;;;;;;;2.40;1.50;;;;;;;11.23;77.23;101626.11;102337;279;120089;-56
2023/05/19 00:22:42;;;;;;;2.60;2.00;;;;;;;11.21;77.68;101626.44;102393;280;105797;-56
2023/05/19 00:25:20;;;;;;;3.60;2.00;;;;;;;11.17;77.92;101630.51;102380;280;112011;-52
2023/05/19 00:28:04;;;;;;;3.00;1.60;;;;;;;11.11;78.12;101625.42;102360;280;96452;-52
2023/05/19 00:30:41;;;;;;;3.60;1.70;;;;;;;11.12;78.31;101622.01;102417;280;97407;-53
2023/05/19 00:33:15;;;;;;;3.30;2.00;;;;;;;11.11;78.52;101626.64;102237;280;120808;-52
2023/05/19 00:35:54;;;;;;;5.60;2.30;;;;;;;11.11;78.67;101629.95;102405;280;104651;-55
2023/05/19 00:38:44;;;;;;;4.10;1.90;;;;;;;11.08;78.84;101632.55;102392;280;114425;-55
2023/05/19 00:41:22;;;;;;;3.50;1.80;;;;;;;11.11;78.82;101630.79;102358;280;96749;-53
2023/05/19 00:44:01;;;;;;;3.70;1.70;;;;;;;11.09;79.14;101631.15;102449;280;97573;-56
2023/05/19 00:46:44;;;;;;;3.60;1.70;;;;;;;11.07;79.20;101629.59;102385;279;120395;-55
2023/05/19 00:49:24;;;;;;;3.90;1.90;;;;;;;11.09;79.33;101629.37;102392;280;105423;-56
2023/05/19 00:52:09;;;;;;;3.00;1.90;;;;;;;11.13;79.44;101626.23;102359;280;113661;-56
2023/05/19 00:54:48;;;;;;;4.60;2.00;;;;;;;11.09;79.54;101628.31;102327;280;94146;-56
2023/05/19 00:57:31;;;;;;;2.50;1.70;;;;;;;11.05;79.72;101624.95;102365;280;97234;-56
2023/05/19 01:00:12;;;;;;;3.40;1.70;;;;;;;11.02;79.85;101624.73;102328;280;121057;-56
2023/05/19 01:02:50;;;;;;;3.70;1.80;;;;;;;10.99;79.87;101622.86;102333;280;106057;-56
2023/05/19 01:05:26;;;;;;;3.60;2.20;;;;;;;10.98;80.09;101621.56;102348;268;114371;-55
2023/05/19 01:08:06;;;;;;;3.20;1.80;;;;;;;10.94;80.22;101619.62;102373;280;96508;-56
2023/05/19 01:10:50;;;;;;;4.80;2.30;;;;;;;10.88;80.44;101619.70;102378;280;98388;-52
2023/05/19 01:13:25;;;;;;;4.50;2.40;;;;;;;10.90;80.41;101614.69;102452;280;119475;-53
2023/05/19 01:16:11;;;;;;;2.90;1.80;;;;;;;10.89;80.81;101612.81;102394;279;104521;-53
2023/05/19 01:19:01;;;;;;;4.40;2.10;;;;;;;10.92;80.94;101613.53;102393;280;114383;-56
2023/05/19 01:22:24;;;;;;;3.10;1.80;;;;;;;10.95;81.10;101615.61;102405;280;96508;-56
2023/05/19 01:25:37;;;;;;;3.00;2.00;;;;;;;10.98;81.07;101615.23;102421;269;96015;-56
2023/05/19 01:28:48;;;;;;;4.60;2.20;;;;;;;10.97;81.25;101608.66;102367;280;118294;-56
2023/05/19 01:31:29;;;;;;;4.90;2.30;;;;;;;10.99;81.17;101604.17;102265;279;105611;-55
2023/05/19 01:34:15;;;;;;;6.40;2.20;;;;;;;11.04;81.16;101604.30;102347;280;113556;-53
2023/05/19 01:36:57;;;;;;;5.60;2.40;;;;;;;11.06;81.31;101606.64;102339;280;94465;-53
2023/05/19 01:39:42;;;;;;;3.80;2.50;;;;;;;11.06;81.10;101606.99;102380;280;98472;-53
2023/05/19 01:42:20;;;;;;;4.00;2.60;;;;;;;11.01;81.17;101605.17;102369;280;120650;-52
2023/05/19 01:45:04;;;;;;;4.20;2.70;;;;;;;10.99;81.32;101605.98;102326;280;105226;-53
2023/05/19 01:47:43;;;;;;;;;;;;;;;10.96;81.38;101605.31;102353;280;114369;-53
2023/05/19 01:50:21;;;;;;;5.70;4.30;;;;;;;10.93;81.58;101604.21;102377;280;95341;-55
2023/05/19 01:52:56;;;;;;;5.20;2.90;;;;;;;10.94;81.59;101605.17;102351;280;98471;-56
2023/05/19 01:55:45;;;;;;;3.90;2.50;;;;;;;10.96;81.71;101597.64;102414;280;119679;-54
2023/05/19 01:58:35;;;;;;;4.30;2.50;;;;;;;10.96;81.63;101594.02;102379;280;105312;-53
2023/05/19 02:01:25;;;;;;;3.00;2.50;;;;;;;10.94;81.84;101591.54;102394;280;115197;-53
2023/05/19 02:04:21;;;;;;;6.00;2.50;;;;;;;10.94;81.99;101592.59;102317;280;96962;-56
2023/05/19 02:07:13;;;;;;;5.20;2.60;;;;;;;10.93;81.99;101592.20;102411;280;96683;-56
2023/05/19 02:10:02;;;;;;;3.90;2.70;;;;;;;10.95;82.05;101593.08;102413;280;121094;-52
2023/05/19 02:12:41;;;;;;;4.50;3.20;;;;;;;10.94;82.29;101592.76;102401;280;105203;-52
2023/05/19 02:15:21;;;;;;;5.50;3.40;;;;;;;10.94;82.34;101591.91;102385;280;112763;-55
2023/05/19 02:18:05;;;;;;;4.10;3.40;;;;;;;10.91;82.72;101589.00;102259;280;91926;-56
2023/05/19 02:20:44;;;;;;;4.00;3.20;;;;;;;10.94;82.69;101589.58;102279;281;97368;-53
2023/05/19 02:23:21;;;;;;;5.80;4.00;;;;;;;10.92;82.72;101593.60;102237;281;120353;-53
2023/05/19 02:25:58;;;;;;;4.60;3.40;;;;;;;10.89;82.78;101593.33;102208;281;105623;-52
2023/05/19 02:28:36;;;;;;;5.50;3.80;;;;;;;10.89;82.99;101593.00;102213;281;114765;-52
2023/05/19 02:31:14;;;;;;;5.50;4.20;;;;;;;10.88;82.92;101593.80;102196;281;94947;-52
2023/05/19 02:33:53;;;;;;;6.10;3.90;;;;;;;10.88;82.98;101589.83;102221;281;97858;-56
2023/05/19 02:36:36;;;;;;;5.70;4.30;;;;;;;10.89;83.02;101591.59;102216;281;120839;-55
2023/05/19 02:39:11;;;;;;;4.50;4.00;;;;;;;10.88;83.09;101590.42;102207;281;106521;-56
2023/05/19 02:41:52;;;;;;;8.40;4.50;;;;;;;10.87;83.40;101587.30;102228;281;113503;-56
2023/05/19 02:44:37;;;;;;;4.90;4.10;;;;;;;10.88;83.24;101588.91;102211;281;94899;-56
2023/05/19 02:47:14;;;;;;;5.30;4.50;;;;;;;10.85;83.16;101589.61;102237;281;98111;-58
2023/05/19 02:50:00;;;;;;;6.90;3.80;;;;;;;10.81;83.32;101587.90;102247;281;120800;-53
2023/05/19 02:52:42;;;;;;;6.40;4.10;;;;;;;10.82;83.42;101591.36;102258;281;105607;-53
2023/05/19 02:55:25;;;;;;;6.00;4.20;;;;;;;10.81;83.43;101592.17;102271;281;114607;-56
2023/05/19 02:58:06;;;;;;;7.70;4.10;;;;;;;10.79;83.55;101593.91;102267;281;95903;-55
2023/05/19 03:00:54;;;;;;;7.20;4.40;;;;;;;10.79;83.60;101596.05;102202;281;98300;-56
2023/05/19 03:03:39;;;;;;;6.60;4.40;;;;;;;10.81;83.54;101594.54;102246;281;119949;-56
2023/05/19 03:06:18;;;;;;;6.70;4.30;;;;;;;10.82;83.69;101598.22;102226;281;105240;-52
2023/05/19 03:08:58;;;;;;;6.90;4.20;;;;;;;10.81;83.79;101595.41;102188;281;112990;-56
2023/05/19 03:11:38;;;;;;;6.90;4.50;;;;;;;10.82;83.76;101598.19;102134;281;96278;-55
2023/05/19 03:14:14;;;;;;;7.60;5.10;;;;;;;10.82;83.89;101595.76;102206;281;97196;-56
2023/05/19 03:16:48;;;;;;;;;;;;;;;10.85;83.95;101598.09;102181;281;120988;-56
2023/05/19 03:19:31;;;;;;;6.50;4.90;;;;;;;10.84;84.07;101595.86;102179;281;106149;-53
2023/05/19 03:22:09;;;;;;;6.70;5.70;;;;;;;10.83;84.17;101596.09;102205;281;112662;-52
2023/05/19 03:24:45;;;;;;;8.20;5.70;;;;;;;10.89;84.17;101598.08;102182;281;96583;-52
2023/05/19 03:27:26;;;;;;;10.10;6.10;;;;;;;10.96;84.40;101595.27;102172;281;97041;-53
2023/05/19 03:30:08;;;;;;;7.60;5.60;;;;;;;11.03;84.39;101596.48;102213;281;120872;-52
2023/05/19 03:32:47;;;;;;;6.10;5.40;;;;;;;11.08;84.31;101594.88;102195;281;105834;-52
2023/05/19 03:35:25;;;;;;;7.10;5.60;;;;;;;11.14;84.27;101602.54;102191;281;114692;-56
2023/05/19 03:38:03;;;;;;;8.30;6.40;;;;;;;11.19;84.09;101601.59;102241;281;94339;-55
2023/05/19 03:40:48;;;;;;;6.50;5.60;;;;;;;11.20;84.24;101604.73;102232;281;97464;-55
2023/05/19 03:43:29;;;;;;;9.20;5.30;;;;;;;11.19;84.32;101603.77;102242;281;119982;-56
2023/05/19 03:46:12;;;;;;;7.50;5.00;;;;;;;11.20;84.15;101602.40;102252;281;104032;-55
2023/05/19 03:48:50;;;;;;;5.00;4.40;;;;;;;11.24;84.26;101605.27;102209;281;114538;-53
2023/05/19 03:51:33;;;;;;;5.40;4.70;;;;;;;11.27;84.48;101601.30;102223;281;97332;-54
2023/05/19 03:54:19;;;;;;;5.00;4.00;;;;;;;11.28;84.44;101604.24;102253;281;96956;-52
2023/05/19 03:57:01;;;;;;;5.60;3.80;;;;;;;11.30;84.36;101600.13;102208;281;119651;-53
2023/05/19 03:59:46;;;;;;;8.70;4.00;;;;;;;11.36;84.15;101599.47;102220;281;105236;-56
2023/05/19 04:02:23;;;;;;;5.20;3.70;;;;;;;11.38;83.99;101599.80;102167;281;114885;-55
2023/05/19 04:05:21;;;;;;;4.90;3.50;;;;;;;11.40;84.01;101601.38;102169;281;95366;-52
2023/05/19 04:08:19;;;;;;;5.80;3.80;;;;;;;11.41;83.82;101600.15;102181;281;97848;-53
2023/05/19 04:10:58;;;;;;;7.00;3.90;;;;;;;11.43;83.85;101606.64;102231;281;120872;-56
2023/05/19 04:13:36;;;;;;;5.70;4.00;;;;;;;11.41;83.68;101605.27;102185;281;106109;-56
2023/05/19 04:16:12;;;;;;;5.50;4.80;;;;;;;11.34;83.80;101604.05;102225;281;111969;-53
2023/05/19 04:18:52;;;;;;;5.50;3.30;;;;;;;11.32;83.68;101603.31;102171;281;97248;-55
2023/05/19 04:21:32;;;;;;;6.60;3.20;;;;;;;11.32;83.90;101602.70;102188;281;98327;-55
2023/05/19 04:24:09;;;;;;;7.30;3.90;;;;;;;11.36;83.62;101603.22;102205;281;121227;-56
2023/05/19 04:26:45;;;;;;;4.90;3.30;;;;;;;11.38;83.63;101605.52;102204;281;105557;-56
2023/05/19 04:29:27;;;;;;;5.70;3.70;;;;;;;11.42;83.64;101602.94;102271;281;114039;-56
2023/05/19 04:32:16;;;;;;;6.50;3.60;;;;;;;11.37;83.78;101602.04;102242;281;93911;-57
2023/05/19 04:34:59;;;;;;;5.40;3.40;;;;;;;11.36;83.76;101601.25;102298;281;97506;-53
2023/05/19 04:37:37;;;;;;;6.50;3.50;;;;;;;11.37;83.80;101601.55;102226;281;121545;-53
2023/05/19 04:40:19;;;;;;;5.90;3.50;;;;;;;11.36;83.86;101600.41;102338;281;106738;-56
2023/05/19 04:42:56;;;;;;;6.30;3.50;;;;;;;11.38;83.65;101601.34;102259;281;112916;-56
2023/05/19 04:45:41;;;;;;;5.00;3.70;;;;;;;11.38;83.82;101602.99;102184;281;97375;-53
2023/05/19 04:48:29;;;;;;;7.50;3.20;;;;;;;11.37;83.89;101602.96;102206;281;98521;-53
2023/05/19 04:51:07;;;;;;;4.10;2.80;;;;;;;11.46;83.68;101604.30;102197;281;119202;-56
2023/05/19 04:53:47;;;;;;;4.90;2.40;;;;;;;11.50;83.53;101603.56;102210;281;105888;-54
2023/05/19 04:56:27;;;;;;;5.90;3.30;;;;;;;11.50;83.61;101603.45;102203;281;115952;-53
2023/05/19 04:59:08;;;;;;;5.80;3.10;;;;;;;11.54;83.35;101609.17;102167;281;93811;-54
2023/05/19 05:01:58;;;;;;;6.80;3.10;;;;;;;11.57;83.56;101607.77;102217;281;97134;-53
2023/05/19 05:04:41;;;;;;;4.40;2.40;;;;;;;11.56;83.17;101605.36;102193;281;119421;-56
2023/05/19 05:07:22;;;;;;;3.30;1.80;;;;;;;11.54;83.00;101606.27;102184;281;104336;-56
2023/05/19 05:10:04;;;;;;;5.00;2.20;;;;;;;11.55;83.00;101608.92;102182;281;113838;-53
2023/05/19 05:12:39;;;;;;;4.60;2.50;;;;;;;11.57;83.16;101608.48;102208;281;95029;-53
2023/05/19 05:15:18;;;;;;;4.60;2.40;;;;;;;11.57;83.07;101609.81;102270;281;96793;-57
2023/05/19 05:17:54;;;;;;;3.70;2.10;;;;;;;11.52;83.24;101608.88;102279;281;119886;-56
2023/05/19 05:20:33;;;;;;;3.60;2.50;;;;;;;11.54;83.06;101607.92;102297;281;106010;-53
2023/05/19 05:23:16;;;;;;;6.30;2.50;;;;;;;11.55;82.95;101608.56;102286;281;113173;-54
2023/05/19 05:25:52;;;;;;;3.40;2.40;;;;;;;11.58;82.81;101607.84;102246;281;97292;-56
2023/05/19 05:28:33;;;;;;;4.50;2.30;;;;;;;11.63;82.93;101605.65;102322;281;98397;-56
2023/05/19 05:31:18;;;;;;;4.40;2.70;;;;;;;11.68;83.02;101610.19;102219;281;121065;-54
2023/05/19 05:34:00;;;;;;;4.40;2.50;;;;;;;11.66;83.20;101607.00;102284;281;104378;-53
2023/05/19 05:36:46;;;;;;;6.80;2.60;;;;;;;11.71;83.07;101607.48;102182;281;114415;-54
2023/05/19 05:39:21;;;;;;;3.40;2.40;;;;;;;11.73;82.99;101607.48;102193;281;97249;-56
2023/05/19 05:42:03;;;;;;;4.10;2.50;;;;;;;11.76;82.95;101607.90;102278;273;97705;-56
2023/05/19 05:44:37;;;;;;;4.40;2.60;;;;;;;11.81;83.00;101611.29;102225;281;121017;-56
2023/05/19 05:47:15;;;;;;;5.40;2.90;;;;;;;11.88;82.90;101608.41;102226;281;106313;-56
2023/05/19 05:49:51;;;;;;;6.30;2.20;;;;;;;11.94;82.86;101607.47;101586;281;836982;-56
2023/05/19 05:52:30;;;;;;;4.10;2.60;;;;;;;11.88;82.78;101606.05;102201;281;98055;-57
2023/05/19 05:55:10;;;;;;;4.00;2.10;;;;;;;11.85;82.74;101602.52;102213;281;96699;-57
2023/05/19 05:57:49;;;;;;;6.00;2.80;;;;;;;11.93;82.71;101608.92;102222;281;119335;-55
2023/05/19 06:00:29;;;;;;;5.00;2.80;;;;;;;11.94;82.85;101606.63;102284;281;103055;-56
2023/05/19 06:03:16;;;;;;;5.30;2.60;;;;;;;11.98;82.80;101605.85;102267;281;112371;-56
2023/05/19 06:05:59;;;;;;;4.60;2.60;;;;;;;11.89;82.79;101606.46;102294;281;96777;-57
2023/05/19 06:08:38;;;;;;;5.30;2.50;;;;;;;11.95;82.85;101609.36;102264;281;97675;-57
2023/05/19 06:11:20;;;;;;;4.50;2.50;;;;;;;12.02;82.80;101608.92;102247;281;119566;-55
2023/05/19 06:14:09;;;;;;;4.90;2.70;;;;;;;12.07;82.77;101612.59;102281;281;103971;-56
2023/05/19 06:16:48;;;;;;;7.00;2.50;;;;;;;12.10;82.87;101610.79;102249;281;114132;-55
2023/05/19 06:19:25;;;;;;;4.10;2.50;;;;;;;12.18;82.87;101610.95;102271;281;94977;-56
2023/05/19 06:22:01;;;;;;;3.80;2.40;;;;;;;12.26;82.94;101612.24;102233;281;97795;-56
2023/05/19 06:24:45;;;;;;;4.80;2.60;;;;;;;12.31;82.86;101608.44;102233;281;121639;-56
2023/05/19 06:27:28;;;;;;;3.90;2.50;;;;;;;12.29;83.08;101610.41;102197;281;105270;-57
2023/05/19 06:30:08;;;;;;;3.70;2.20;;;;;;;12.40;83.00;101614.16;102205;281;114856;-54
2023/05/19 06:32:50;;;;;;;5.80;2.90;;;;;;;12.48;82.77;101613.57;102303;281;95231;-52
2023/05/19 06:35:26;;;;;;;3.60;2.40;;;;;;;12.39;82.69;101609.95;102228;281;95554;-56
2023/05/19 06:38:04;;;;;;;6.50;3.00;;;;;;;12.37;82.71;101614.33;102200;270;119309;-56
2023/05/19 06:40:44;;;;;;;4.60;2.30;;;;;;;12.40;82.37;101613.34;102238;281;103980;-53
2023/05/19 06:43:21;;;;;;;3.70;2.30;;;;;;;12.37;82.46;101614.05;102213;281;114650;-53
2023/05/19 06:46:06;;;;;;;12.50;3.70;;;;;;;12.43;82.57;101611.04;102208;281;95837;-53
2023/05/19 06:48:45;;;;;;;7.30;2.40;;;;;;;12.41;82.48;101609.42;102231;281;95893;-53
2023/05/19 06:51:22;;;;;;;5.10;2.60;;;;;;;12.36;82.53;101611.28;102250;281;120692;-52
2023/05/19 06:54:00;;;;;;;5.50;2.60;;;;;;;12.41;82.44;101607.03;102273;281;105102;-54
2023/05/19 06:56:37;;;;;;;4.20;2.60;;;;;;;12.42;82.51;101601.64;102217;281;115385;-54
2023/05/19 06:59:17;;;;;;;4.60;2.80;;;;;;;12.45;82.62;101600.98;102229;281;93929;-53
2023/05/19 07:02:01;;;;;;;3.70;2.40;;;;;;;12.44;82.61;101600.09;102233;281;96905;-53
2023/05/19 07:04:41;;;;;;;3.80;2.30;;;;;;;12.37;82.47;101601.55;102197;281;121010;-58
2023/05/19 07:07:21;;;;;;;3.50;2.40;;;;;;;12.30;82.64;101600.92;102202;281;102918;-56
2023/05/19 07:10:03;;;;;;;3.70;2.70;;;;;;;12.22;82.56;101605.42;102186;281;113095;-62
2023/05/19 07:12:40;;;;;;;4.40;3.10;;;;;;;12.25;82.63;101601.88;102199;281;94113;-58
2023/05/19 07:15:17;;;;;;;6.90;2.90;;;;;;;12.29;82.63;101603.91;102226;281;96578;-55
2023/05/19 07:17:59;;;;;;;4.30;3.00;;;;;;;12.28;82.84;101599.50;102213;281;121163;-55
2023/05/19 07:20:38;;;;;;;4.80;2.40;;;;;;;12.27;82.77;101599.48;102220;281;105327;-57
2023/05/19 07:23:12;;;;;;;6.30;2.90;;;;;;;12.27;82.79;101599.40;102169;281;114157;-57
2023/05/19 07:25:54;;;;;;;4.50;3.20;;;;;;;12.30;82.98;101598.27;102175;281;95986;-54
2023/05/19 07:28:31;;;;;;;5.80;2.70;;;;;;;12.36;82.79;101597.23;102210;281;98278;-55
2023/05/19 07:31:12;;;;;;;5.50;3.10;;;;;;;12.38;82.77;101597.80;102187;281;120346;-55
2023/05/19 07:33:50;;;;;;;4.60;2.70;;;;;;;12.40;82.94;101601.35;102284;281;105132;-58
2023/05/19 07:36:33;;;;;;;5.60;3.70;;;;;;;12.33;82.84;101604.95;102208;281;112466;-57
2023/05/19 07:39:09;;;;;;;5.60;2.40;;;;;;;12.33;82.74;101604.03;102255;281;96335;-55
2023/05/19 07:41:44;;;;;;;4.10;2.70;;;;;;;12.34;82.70;101600.98;102304;281;96398;-54
2023/05/19 07:44:30;;;;;;;4.80;3.10;;;;;;;12.32;83.04;101601.54;102302;281;120931;-53
2023/05/19 07:47:05;;;;;;;5.40;2.60;;;;;;;12.38;82.95;101602.04;102238;281;105340;-53
2023/05/19 07:49:46;;;;;;;6.50;2.50;;;;;;;12.40;83.12;101605.86;102237;281;114450;-54
2023/05/19 07:52:29;;;;;;;5.20;3.20;;;;;;;12.46;83.06;101604.52;102209;269;96548;-54
2023/05/19 07:55:11;;;;;;;4.30;2.70;;;;;;;12.51;82.96;101603.48;102234;281;98145;-57
2023/05/19 07:57:50;;;;;;;4.60;2.80;;;;;;;12.52;83.01;101604.08;102177;281;120319;-58
2023/05/19 08:00:29;;;;;;;8.60;3.10;;;;;;;12.53;82.90;101604.95;102250;281;104792;-58
2023/05/19 08:03:06;;;;;;;4.00;2.50;;;;;;;12.55;83.08;101603.86;102193;281;114308;-58
2023/05/19 08:05:46;;;;;;;3.70;2.40;;;;;;;12.61;83.03;101602.49;102173;281;94810;-57
2023/05/19 08:08:26;;;;;;;5.00;2.70;;;;;;;12.62;83.13;101600.39;102250;281;96625;-57
2023/05/19 08:11:09;;;;;;;3.30;2.40;;;;;;;12.58;83.21;101604.64;102148;281;121059;-58
2023/05/19 08:13:50;;;;;;;7.40;2.50;;;;;;;12.52;83.21;101604.58;102209;281;104517;-55
2023/05/19 08:16:26;;;;;;;4.70;2.50;;;;;;;12.58;83.27;101598.88;102227;281;112981;-57
2023/05/19 08:19:06;;;;;;;5.20;2.70;;;;;;;12.65;83.09;101600.24;102251;281;94750;-58
2023/05/19 08:21:53;;;;;;;5.10;2.90;;;;;;;12.65;82.89;101601.30;102233;281;98313;-58
2023/05/19 08:24:37;;;;;;;5.80;2.40;;;;;;;12.61;82.92;101603.00;102228;281;120397;-53
2023/05/19 08:27:18;;;;;;;4.00;2.30;;;;;;;12.62;82.91;101601.48;102250;281;105573;-54
2023/05/19 08:30:02;;;;;;;4.70;2.40;;;;;;;12.55;83.20;101599.95;102229;281;114718;-55
2023/05/19 08:32:42;;;;;;;5.00;2.60;;;;;;;12.53;83.31;101598.58;102206;281;94105;-55
2023/05/19 08:35:23;;;;;;;5.70;2.40;;;;;;;12.50;83.28;101602.63;102244;281;97478;-55
2023/05/19 08:38:01;;;;;;;6.70;3.00;;;;;;;12.53;83.14;101602.31;102224;281;120395;-54
2023/05/19 08:40:44;;;;;;;7.00;3.40;;;;;;;12.60;83.27;101596.80;102262;277;105423;-58
2023/05/19 08:43:19;;;;;;;6.80;3.00;;;;;;;12.60;83.35;101595.30;102196;281;114984;-57
2023/05/19 08:45:57;;;;;;;5.80;3.50;;;;;;;12.61;83.26;101590.95;102175;281;97204;-58
2023/05/19 08:48:33;;;;;;;6.20;3.10;;;;;;;12.59;83.41;101593.12;102193;281;97370;-59
2023/05/19 08:51:18;;;;;;;5.60;2.70;;;;;;;12.67;83.49;101595.98;102194;281;119032;-54
2023/05/19 08:54:07;;;;;;;5.30;3.40;;;;;;;12.70;83.77;101594.95;102217;281;105286;-54
2023/05/19 08:56:49;;;;;;;6.70;3.60;;;;;;;12.74;83.64;101591.55;102218;281;113638;-53
2023/05/19 08:59:37;;;;;;;5.00;3.20;;;;;;;12.78;83.65;101592.08;102232;281;93752;-55
2023/05/19 09:02:16;;;;;;;4.60;2.60;;;;;;;12.76;83.61;101595.14;102292;280;97553;-54
2023/05/19 09:04:51;;;;;;;5.60;3.30;;;;;;;12.86;83.41;101593.27;102224;281;120872;-54
2023/05/19 09:07:33;;;;;;;7.50;3.50;;;;;;;12.83;83.28;101592.33;102211;280;104833;-54
2023/05/19 09:10:13;;;;;;;5.60;3.30;;;;;;;12.91;83.27;101592.47;102186;281;114504;-57
2023/05/19 09:12:51;;;;;;;5.80;3.50;;;;;;;12.97;83.25;101590.58;102164;281;94924;-58
2023/05/19 09:15:35;;;;;;;6.80;3.60;;;;;;;13.02;83.18;101592.84;102177;281;97878;-54
2023/05/19 09:18:16;;;;;;;6.90;3.80;;;;;;;13.11;82.87;101591.27;102201;281;119224;-54
2023/05/19 09:21:04;;;;;;;7.40;3.50;;;;;;;13.16;83.04;101593.98;102217;281;105517;-55
2023/05/19 09:23:42;;;;;;;7.40;3.40;;;;;;;13.22;82.92;101596.88;102222;281;114718;-54
2023/05/19 09:26:24;;;;;;;9.40;4.00;;;;;;;13.27;82.88;101593.77;102241;281;97155;-58
2023/05/19 09:29:10;;;;;;;11.00;5.00;;;;;;;13.30;82.56;101590.69;102316;281;97415;-57
2023/05/19 09:32:03;;;;;;;7.80;3.90;;;;;;;13.40;82.48;101591.55;102265;281;121263;-57
2023/05/19 09:34:49;;;;;;;11.60;4.20;;;;;;;13.53;82.38;101595.00;102252;280;104746;-56
2023/05/19 09:37:31;;;;;;;12.90;5.00;;;;;;;13.50;82.73;101589.92;102231;281;115013;-57
2023/05/19 09:40:10;;;;;;;10.00;5.10;;;;;;;13.60;82.37;101589.48;102227;281;95266;-57
2023/05/19 09:42:53;;;;;;;10.30;4.70;;;;;;;13.69;82.16;101590.03;102237;281;97711;-58
2023/05/19 09:45:33;;;;;;;10.40;3.80;;;;;;;13.70;82.00;101591.19;102220;281;120522;-54
2023/05/19 09:48:10;;;;;;;10.10;5.00;;;;;;;13.70;81.96;101586.41;102203;281;105820;-54
2023/05/19 09:50:50;;;;;;;8.80;4.30;;;;;;;13.80;81.89;101587.18;102201;281;114473;-54
2023/05/19 09:53:27;;;;;;;9.30;4.10;;;;;;;13.82;81.61;101591.37;102269;281;94754;-53
2023/05/19 09:56:06;;;;;;;11.50;4.20;;;;;;;13.75;81.28;101593.33;102273;281;97628;-54
2023/05/19 09:58:43;;;;;;;7.90;4.20;;;;;;;13.67;81.34;101591.96;102299;281;120155;-54
2023/05/19 10:01:23;;;;;;;9.40;4.50;;;;;;;13.67;81.05;101590.20;102287;281;104761;-53
2023/05/19 10:04:08;;;;;;;10.60;4.50;;;;;;;13.68;81.08;101588.55;102303;281;113931;-58
2023/05/19 10:06:53;;;;;;;12.10;4.80;;;;;;;13.71;81.11;101588.44;102260;281;96399;-57
2023/05/19 10:09:34;;;;;;;10.80;4.90;;;;;;;13.60;80.87;101591.34;102356;281;97206;-57
2023/05/19 10:12:13;;;;;;;10.10;4.80;;;;;;;13.67;81.09;101592.02;102315;281;120902;-57
2023/05/19 10:14:57;;;;;;;11.10;4.40;;;;;;;13.74;80.69;101588.82;102287;281;106610;-57
2023/05/19 10:17:38;;;;;;;11.60;4.80;;;;;;;13.67;80.75;101586.77;102241;281;113577;-59
2023/05/19 10:20:21;;;;;;;12.90;5.30;;;;;;;13.70;81.00;101584.23;102193;281;96744;-53
2023/05/19 10:23:01;;;;;;;8.90;4.40;;;;;;;13.68;80.95;101581.09;102200;281;97451;-55
2023/05/19 10:25:44;;;;;;;10.90;4.90;;;;;;;13.74;80.93;101578.39;102264;281;121823;-54
2023/05/19 10:28:24;;;;;;;11.00;4.90;;;;;;;13.79;80.76;101576.05;102263;269;105290;-54
2023/05/19 10:31:09;;;;;;;10.70;4.30;;;;;;;13.87;80.72;101572.35;102253;281;114293;-56
2023/05/19 10:34:03;;;;;;;10.90;4.90;;;;;;;13.94;80.66;101570.36;102310;281;94801;-56
2023/05/19 10:37:13;;;;;;;10.90;4.40;;;;;;;13.89;80.59;101575.87;102312;281;97312;-54
2023/05/19 10:39:54;;;;;;;10.80;4.90;;;;;;;13.95;80.32;101572.45;102291;281;120804;-54
2023/05/19 10:42:46;;;;;;;9.30;4.00;;;;;;;14.05;80.23;101567.82;102321;281;103517;-55
2023/05/19 10:45:24;;;;;;;8.70;4.40;;;;;;;14.05;80.30;101572.34;102292;281;113185;-56
2023/05/19 10:48:04;;;;;;;10.10;4.70;;;;;;;14.10;80.22;101569.23;102255;279;96582;-57
2023/05/19 10:50:49;;;;;;;10.60;4.30;;;;;;;14.10;80.21;101565.60;102269;281;98036;-54
2023/05/19 10:53:33;;;;;;;7.80;4.00;;;;;;;14.18;80.12;101567.88;102240;281;119752;-54
2023/05/19 10:56:09;;;;;;;10.30;4.00;;;;;;;14.20;80.12;101568.33;102240;281;106493;-58
2023/05/19 10:58:53;;;;;;;9.60;4.70;;;;;;;14.34;80.13;101566.48;102268;281;113833;-56
2023/05/19 11:01:45;;;;;;;8.60;3.90;;;;;;;14.53;79.71;101564.17;102270;281;94301;-58
2023/05/19 11:04:46;;;;;;;9.30;4.20;;;;;;;14.82;79.63;101563.09;102240;281;97214;-54
2023/05/19 11:07:29;;;;;;;7.90;3.40;;;;;;;15.17;79.17;101561.04;102191;281;120445;-55
2023/05/19 11:10:13;;;;;;;15.20;4.40;;;;;;;15.35;79.06;101560.96;102277;281;106005;-53
2023/05/19 11:12:50;;;;;;;11.70;4.20;;;;;;;15.40;78.47;101562.98;102275;281;114204;-53
2023/05/19 11:15:35;;;;;;;10.50;5.00;;;;;;;15.31;77.91;101564.92;102283;281;94857;-57
2023/05/19 11:18:11;;;;;;;;;;;;;;;15.10;77.45;101562.66;102319;281;95817;-57
2023/05/19 11:21:05;;;;;;;8.10;3.90;;;;;;;15.00;77.52;101563.20;102248;281;119469;-57
2023/05/19 11:23:48;;;;;;;9.50;5.10;;;;;;;15.06;77.50;101564.92;102268;281;104903;-57
2023/05/19 11:26:43;;;;;;;9.20;4.50;;;;;;;15.08;77.36;101563.89;102234;280;114286;-54
2023/05/19 11:29:26;;;;;;;9.50;4.60;;;;;;;14.98;77.34;101563.98;102227;281;95091;-56
2023/05/19 11:32:07;;;;;;;10.80;4.40;;;;;;;15.00;77.42;101565.80;102216;281;98058;-61
2023/05/19 11:34:49;;;;;;;11.20;4.70;;;;;;;15.02;77.32;101563.55;102222;269;121129;-56
2023/05/19 11:37:27;;;;;;;9.20;4.10;;;;;;;15.01;77.37;101565.56;102237;280;104465;-57
2023/05/19 11:40:05;;;;;;;9.10;4.50;;;;;;;15.07;76.97;101565.02;102217;281;113248;-56
2023/05/19 11:42:44;;;;;;;10.00;4.30;;;;;;;15.16;76.78;101568.30;102224;281;95005;-54
2023/05/19 11:45:26;;;;;;;8.90;4.70;;;;;;;15.08;76.59;101563.69;102208;281;98250;-54
2023/05/19 11:48:09;;;;;;;10.00;4.70;;;;;;;15.03;76.25;101564.12;102220;281;120564;-54
2023/05/19 11:50:46;;;;;;;6.50;4.30;;;;;;;15.02;76.16;101565.73;102246;281;104278;-54
2023/05/19 11:53:23;;;;;;;7.90;4.20;;;;;;;14.94;76.12;101568.84;102283;281;112800;-55
2023/05/19 11:56:06;;;;;;;10.00;4.30;;;;;;;15.03;76.16;101565.22;102186;281;96049;-55
2023/05/19 11:58:59;;;;;;;9.90;4.90;;;;;;;15.14;76.05;101564.89;102217;281;97184;-55
2023/05/19 12:01:39;;;;;;;10.00;4.10;;;;;;;15.21;75.82;101566.16;102234;281;119886;-57
2023/05/19 12:04:19;;;;;;;8.40;4.30;;;;;;;15.26;76.06;101567.86;102183;281;103343;-58
2023/05/19 12:07:03;;;;;;;7.80;4.10;;;;;;;15.34;75.79;101572.38;102199;269;114924;-57
2023/05/19 12:09:40;;;;;;;6.40;4.30;;;;;;;15.33;75.74;101568.48;102212;281;94515;-57
2023/05/19 12:12:18;;;;;;;10.30;4.20;;;;;;;15.33;75.49;101568.52;102215;281;98386;-57
2023/05/19 12:15:05;;;;;;;8.20;4.10;;;;;;;15.33;75.43;101568.81;102202;281;120655;-58
2023/05/19 12:17:50;;;;;;;8.20;3.90;;;;;;;15.21;75.19;101567.21;102214;281;104071;-58
2023/05/19 12:20:31;;;;;;;9.50;3.80;;;;;;;15.22;75.23;101566.72;102225;281;114326;-58
2023/05/19 12:23:12;;;;;;;8.90;4.10;;;;;;;15.21;74.99;101568.33;102239;281;96131;-58
2023/05/19 12:25:48;;;;;;;7.00;4.00;;;;;;;15.22;74.97;101569.48;102271;281;97539;-58